sensor_id;sensor_type;location;lat;lon;timestamp;P1;durP1;ratioP1;P2;durP2;ratioP2
50102;SDS011;35993;52.604;10.078;2023-05-16T00:01:20;4.05;;;2.28;;
50102;SDS011;35993;52.604;10.078;2023-05-16T00:03:46;5.03;;;2.42;;
50102;SDS011;35993;52.604;10.078;2023-05-16T00:06:11;5.82;;;2.13;;
50102;SDS011;35993;52.604;10.078;2023-05-16T00:08:37;4.70;;;2.08;;
50102;SDS011;35993;52.604;10.078;2023-05-16T00:11:03;6.35;;;2.22;;
50102;SDS011;35993;52.604;10.078;2023-05-16T00:13:28;6.53;;;2.22;;
50102;SDS011;35993;52.604;10.078;2023-05-16T00:15:54;3.00;;;2.15;;
50102;SDS011;35993;52.604;10.078;2023-05-16T00:18:20;4.70;;;2.10;;
50102;SDS011;35993;52.604;10.078;2023-05-16T00:20:47;5.68;;;2.03;;
50102;SDS011;35993;52.604;10.078;2023-05-16T00:23:14;4.65;;;2.03;;
50102;SDS011;35993;52.604;10.078;2023-05-16T00:25:39;4.78;;;2.15;;
50102;SDS011;35993;52.604;10.078;2023-05-16T00:28:05;5.72;;;2.10;;
50102;SDS011;35993;52.604;10.078;2023-05-16T00:30:32;4.07;;;2.20;;
50102;SDS011;35993;52.604;10.078;2023-05-16T00:32:57;5.75;;;2.28;;
50102;SDS011;35993;52.604;10.078;2023-05-16T00:35:23;3.20;;;1.85;;
50102;SDS011;35993;52.604;10.078;2023-05-16T00:37:49;4.25;;;1.98;;
50102;SDS011;35993;52.604;10.078;2023-05-16T00:40:15;4.90;;;2.13;;
50102;SDS011;35993;52.604;10.078;2023-05-16T00:42:41;4.18;;;2.05;;
50102;SDS011;35993;52.604;10.078;2023-05-16T00:45:07;4.45;;;1.85;;
50102;SDS011;35993;52.604;10.078;2023-05-16T00:47:33;3.25;;;1.77;;
50102;SDS011;35993;52.604;10.078;2023-05-16T00:49:59;2.75;;;1.67;;
50102;SDS011;35993;52.604;10.078;2023-05-16T00:52:25;5.13;;;1.95;;
50102;SDS011;35993;52.604;10.078;2023-05-16T00:54:50;3.38;;;1.80;;
50102;SDS011;35993;52.604;10.078;2023-05-16T00:57:16;4.35;;;1.88;;
50102;SDS011;35993;52.604;10.078;2023-05-16T00:59:43;5.45;;;1.95;;
50102;SDS011;35993;52.604;10.078;2023-05-16T01:02:10;2.92;;;1.90;;
50102;SDS011;35993;52.604;10.078;2023-05-16T01:04:37;5.05;;;1.80;;
50102;SDS011;35993;52.604;10.078;2023-05-16T01:07:04;3.25;;;1.85;;
50102;SDS011;35993;52.604;10.078;2023-05-16T01:09:33;5.10;;;2.03;;
50102;SDS011;35993;52.604;10.078;2023-05-16T01:12:26;4.95;;;1.90;;
50102;SDS011;35993;52.604;10.078;2023-05-16T01:20:32;5.32;;;1.95;;
50102;SDS011;35993;52.604;10.078;2023-05-16T01:23:25;6.30;;;2.20;;
50102;SDS011;35993;52.604;10.078;2023-05-16T01:28:47;3.85;;;1.80;;
50102;SDS011;35993;52.604;10.078;2023-05-16T01:31:13;5.57;;;2.35;;
50102;SDS011;35993;52.604;10.078;2023-05-16T01:33:40;5.30;;;1.92;;
50102;SDS011;35993;52.604;10.078;2023-05-16T01:42:03;3.40;;;1.85;;
50102;SDS011;35993;52.604;10.078;2023-05-16T01:46:58;3.90;;;1.90;;
50102;SDS011;35993;52.604;10.078;2023-05-16T01:49:30;4.43;;;2.00;;
50102;SDS011;35993;52.604;10.078;2023-05-16T01:52:14;4.30;;;1.75;;
50102;SDS011;35993;52.604;10.078;2023-05-16T01:54:45;4.82;;;2.05;;
50102;SDS011;35993;52.604;10.078;2023-05-16T01:57:15;5.45;;;1.77;;
50102;SDS011;35993;52.604;10.078;2023-05-16T01:59:41;4.82;;;1.73;;
50102;SDS011;35993;52.604;10.078;2023-05-16T02:02:09;3.38;;;1.90;;
50102;SDS011;35993;52.604;10.078;2023-05-16T02:04:36;6.95;;;2.10;;
50102;SDS011;35993;52.604;10.078;2023-05-16T02:07:02;2.90;;;1.50;;
50102;SDS011;35993;52.604;10.078;2023-05-16T02:09:28;3.17;;;1.55;;
50102;SDS011;35993;52.604;10.078;2023-05-16T02:11:53;4.82;;;1.85;;
50102;SDS011;35993;52.604;10.078;2023-05-16T02:14:19;6.82;;;2.40;;
50102;SDS011;35993;52.604;10.078;2023-05-16T02:16:44;4.47;;;1.80;;
50102;SDS011;35993;52.604;10.078;2023-05-16T02:19:10;4.88;;;1.90;;
50102;SDS011;35993;52.604;10.078;2023-05-16T02:21:37;2.55;;;1.80;;
50102;SDS011;35993;52.604;10.078;2023-05-16T02:24:03;4.50;;;2.25;;
50102;SDS011;35993;52.604;10.078;2023-05-16T02:26:29;6.43;;;2.20;;
50102;SDS011;35993;52.604;10.078;2023-05-16T02:28:55;4.57;;;2.00;;
50102;SDS011;35993;52.604;10.078;2023-05-16T02:33:53;4.20;;;1.65;;
50102;SDS011;35993;52.604;10.078;2023-05-16T02:36:19;4.40;;;2.33;;
50102;SDS011;35993;52.604;10.078;2023-05-16T02:38:45;4.07;;;1.80;;
50102;SDS011;35993;52.604;10.078;2023-05-16T02:41:11;9.00;;;2.10;;
50102;SDS011;35993;52.604;10.078;2023-05-16T02:43:36;8.02;;;2.05;;
50102;SDS011;35993;52.604;10.078;2023-05-16T02:46:18;8.88;;;2.50;;
50102;SDS011;35993;52.604;10.078;2023-05-16T02:48:48;4.63;;;1.88;;
50102;SDS011;35993;52.604;10.078;2023-05-16T02:51:16;3.88;;;1.58;;
50102;SDS011;35993;52.604;10.078;2023-05-16T02:53:42;6.00;;;2.00;;
50102;SDS011;35993;52.604;10.078;2023-05-16T02:56:07;4.90;;;1.90;;
50102;SDS011;35993;52.604;10.078;2023-05-16T02:58:34;5.95;;;2.08;;
50102;SDS011;35993;52.604;10.078;2023-05-16T03:01:00;5.03;;;1.92;;
50102;SDS011;35993;52.604;10.078;2023-05-16T03:03:25;7.22;;;2.22;;
50102;SDS011;35993;52.604;10.078;2023-05-16T03:05:51;5.22;;;2.20;;
50102;SDS011;35993;52.604;10.078;2023-05-16T03:08:17;7.72;;;2.28;;
50102;SDS011;35993;52.604;10.078;2023-05-16T03:10:42;5.07;;;2.00;;
50102;SDS011;35993;52.604;10.078;2023-05-16T03:13:08;5.35;;;1.67;;
50102;SDS011;35993;52.604;10.078;2023-05-16T03:15:34;5.25;;;2.05;;
50102;SDS011;35993;52.604;10.078;2023-05-16T03:17:59;5.53;;;1.98;;
50102;SDS011;35993;52.604;10.078;2023-05-16T03:20:25;5.38;;;1.67;;
50102;SDS011;35993;52.604;10.078;2023-05-16T03:22:50;3.92;;;1.75;;
50102;SDS011;35993;52.604;10.078;2023-05-16T03:25:16;3.53;;;1.42;;
50102;SDS011;35993;52.604;10.078;2023-05-16T03:27:41;3.75;;;1.40;;
50102;SDS011;35993;52.604;10.078;2023-05-16T03:30:07;4.63;;;1.55;;
50102;SDS011;35993;52.604;10.078;2023-05-16T03:32:33;5.65;;;1.25;;
50102;SDS011;35993;52.604;10.078;2023-05-16T03:34:59;4.95;;;1.67;;
50102;SDS011;35993;52.604;10.078;2023-05-16T03:37:25;8.43;;;1.65;;
50102;SDS011;35993;52.604;10.078;2023-05-16T03:39:51;2.88;;;1.30;;
50102;SDS011;35993;52.604;10.078;2023-05-16T03:42:16;2.90;;;1.30;;
50102;SDS011;35993;52.604;10.078;2023-05-16T03:44:42;7.45;;;1.42;;
50102;SDS011;35993;52.604;10.078;2023-05-16T03:47:08;2.78;;;1.10;;
50102;SDS011;35993;52.604;10.078;2023-05-16T03:49:34;7.18;;;1.50;;
50102;SDS011;35993;52.604;10.078;2023-05-16T03:52:01;5.13;;;1.40;;
50102;SDS011;35993;52.604;10.078;2023-05-16T03:54:28;3.45;;;1.15;;
50102;SDS011;35993;52.604;10.078;2023-05-16T03:56:53;3.75;;;1.20;;
50102;SDS011;35993;52.604;10.078;2023-05-16T03:59:19;3.65;;;1.40;;
50102;SDS011;35993;52.604;10.078;2023-05-16T04:01:45;4.78;;;1.38;;
50102;SDS011;35993;52.604;10.078;2023-05-16T04:04:11;3.15;;;1.38;;
50102;SDS011;35993;52.604;10.078;2023-05-16T04:06:36;4.57;;;1.20;;
50102;SDS011;35993;52.604;10.078;2023-05-16T04:09:02;3.95;;;1.50;;
50102;SDS011;35993;52.604;10.078;2023-05-16T04:11:27;5.82;;;1.40;;
50102;SDS011;35993;52.604;10.078;2023-05-16T04:13:53;8.38;;;1.40;;
50102;SDS011;35993;52.604;10.078;2023-05-16T04:16:18;5.93;;;1.45;;
50102;SDS011;35993;52.604;10.078;2023-05-16T04:18:44;5.10;;;1.35;;
50102;SDS011;35993;52.604;10.078;2023-05-16T04:21:10;4.85;;;1.40;;
50102;SDS011;35993;52.604;10.078;2023-05-16T04:23:39;3.30;;;1.30;;
50102;SDS011;35993;52.604;10.078;2023-05-16T04:26:05;5.28;;;1.33;;
50102;SDS011;35993;52.604;10.078;2023-05-16T04:28:31;6.07;;;1.30;;
50102;SDS011;35993;52.604;10.078;2023-05-16T04:30:57;4.03;;;1.33;;
50102;SDS011;35993;52.604;10.078;2023-05-16T04:33:22;6.40;;;1.40;;
50102;SDS011;35993;52.604;10.078;2023-05-16T04:35:48;6.75;;;1.52;;
50102;SDS011;35993;52.604;10.078;2023-05-16T04:38:14;5.65;;;1.55;;
50102;SDS011;35993;52.604;10.078;2023-05-16T04:40:39;7.47;;;1.88;;
50102;SDS011;35993;52.604;10.078;2023-05-16T04:43:07;6.40;;;1.50;;
50102;SDS011;35993;52.604;10.078;2023-05-16T04:45:33;6.40;;;1.73;;
50102;SDS011;35993;52.604;10.078;2023-05-16T04:47:59;6.97;;;1.52;;
50102;SDS011;35993;52.604;10.078;2023-05-16T04:50:25;8.80;;;1.50;;
50102;SDS011;35993;52.604;10.078;2023-05-16T04:52:51;7.20;;;1.60;;
50102;SDS011;35993;52.604;10.078;2023-05-16T04:55:16;3.88;;;1.52;;
50102;SDS011;35993;52.604;10.078;2023-05-16T04:57:42;7.50;;;1.75;;
50102;SDS011;35993;52.604;10.078;2023-05-16T05:00:07;5.15;;;1.50;;
50102;SDS011;35993;52.604;10.078;2023-05-16T05:02:37;5.38;;;1.70;;
50102;SDS011;35993;52.604;10.078;2023-05-16T05:05:04;7.45;;;1.60;;
50102;SDS011;35993;52.604;10.078;2023-05-16T05:07:30;10.95;;;2.17;;
50102;SDS011;35993;52.604;10.078;2023-05-16T05:09:56;9.13;;;2.10;;
50102;SDS011;35993;52.604;10.078;2023-05-16T05:12:22;5.97;;;1.77;;
50102;SDS011;35993;52.604;10.078;2023-05-16T05:14:48;8.75;;;2.15;;
50102;SDS011;35993;52.604;10.078;2023-05-16T05:17:13;5.90;;;1.95;;
50102;SDS011;35993;52.604;10.078;2023-05-16T05:19:39;6.55;;;1.65;;
50102;SDS011;35993;52.604;10.078;2023-05-16T05:22:04;10.23;;;2.03;;
50102;SDS011;35993;52.604;10.078;2023-05-16T05:24:30;9.98;;;1.70;;
50102;SDS011;35993;52.604;10.078;2023-05-16T05:26:55;8.05;;;1.73;;
50102;SDS011;35993;52.604;10.078;2023-05-16T05:29:21;8.15;;;1.80;;
50102;SDS011;35993;52.604;10.078;2023-05-16T05:31:47;11.57;;;1.83;;
50102;SDS011;35993;52.604;10.078;2023-05-16T05:34:12;8.02;;;2.10;;
50102;SDS011;35993;52.604;10.078;2023-05-16T05:36:38;7.38;;;1.58;;
50102;SDS011;35993;52.604;10.078;2023-05-16T05:39:04;10.55;;;1.85;;
50102;SDS011;35993;52.604;10.078;2023-05-16T05:41:29;10.48;;;1.90;;
50102;SDS011;35993;52.604;10.078;2023-05-16T05:43:55;9.98;;;1.90;;
50102;SDS011;35993;52.604;10.078;2023-05-16T05:46:21;13.10;;;2.10;;
50102;SDS011;35993;52.604;10.078;2023-05-16T05:48:46;13.27;;;2.10;;
50102;SDS011;35993;52.604;10.078;2023-05-16T05:51:12;9.23;;;1.92;;
50102;SDS011;35993;52.604;10.078;2023-05-16T05:53:38;14.52;;;1.90;;
50102;SDS011;35993;52.604;10.078;2023-05-16T05:56:05;10.10;;;1.83;;
50102;SDS011;35993;52.604;10.078;2023-05-16T05:58:30;10.60;;;1.83;;
50102;SDS011;35993;52.604;10.078;2023-05-16T06:00:56;7.65;;;1.58;;
50102;SDS011;35993;52.604;10.078;2023-05-16T06:03:22;7.88;;;1.95;;
50102;SDS011;35993;52.604;10.078;2023-05-16T06:05:47;12.32;;;1.90;;
50102;SDS011;35993;52.604;10.078;2023-05-16T06:08:13;7.60;;;1.67;;
50102;SDS011;35993;52.604;10.078;2023-05-16T06:10:39;15.23;;;2.17;;
50102;SDS011;35993;52.604;10.078;2023-05-16T06:13:05;11.38;;;1.60;;
50102;SDS011;35993;52.604;10.078;2023-05-16T06:15:32;5.15;;;1.63;;
50102;SDS011;35993;52.604;10.078;2023-05-16T06:17:59;7.68;;;1.83;;
50102;SDS011;35993;52.604;10.078;2023-05-16T06:20:25;9.25;;;1.65;;
50102;SDS011;35993;52.604;10.078;2023-05-16T06:22:51;9.52;;;1.90;;
50102;SDS011;35993;52.604;10.078;2023-05-16T06:25:17;9.18;;;2.00;;
50102;SDS011;35993;52.604;10.078;2023-05-16T06:27:44;8.02;;;2.33;;
50102;SDS011;35993;52.604;10.078;2023-05-16T06:30:10;8.20;;;1.63;;
50102;SDS011;35993;52.604;10.078;2023-05-16T06:32:37;6.85;;;1.90;;
50102;SDS011;35993;52.604;10.078;2023-05-16T06:35:06;7.53;;;1.70;;
50102;SDS011;35993;52.604;10.078;2023-05-16T06:37:34;8.32;;;1.73;;
50102;SDS011;35993;52.604;10.078;2023-05-16T06:39:59;8.05;;;1.70;;
50102;SDS011;35993;52.604;10.078;2023-05-16T06:42:25;11.07;;;1.58;;
50102;SDS011;35993;52.604;10.078;2023-05-16T06:44:52;7.82;;;1.77;;
50102;SDS011;35993;52.604;10.078;2023-05-16T06:47:17;12.68;;;2.17;;
50102;SDS011;35993;52.604;10.078;2023-05-16T06:49:43;8.23;;;1.35;;
50102;SDS011;35993;52.604;10.078;2023-05-16T06:52:08;9.15;;;1.92;;
50102;SDS011;35993;52.604;10.078;2023-05-16T06:54:34;7.95;;;1.70;;
50102;SDS011;35993;52.604;10.078;2023-05-16T06:56:59;10.60;;;2.03;;
50102;SDS011;35993;52.604;10.078;2023-05-16T06:59:25;10.00;;;1.52;;
50102;SDS011;35993;52.604;10.078;2023-05-16T07:01:50;12.35;;;1.65;;
50102;SDS011;35993;52.604;10.078;2023-05-16T07:04:16;12.57;;;1.75;;
50102;SDS011;35993;52.604;10.078;2023-05-16T07:06:41;8.43;;;1.45;;
50102;SDS011;35993;52.604;10.078;2023-05-16T07:09:07;7.55;;;1.35;;
50102;SDS011;35993;52.604;10.078;2023-05-16T07:11:33;7.60;;;1.60;;
50102;SDS011;35993;52.604;10.078;2023-05-16T07:13:58;8.35;;;1.73;;
50102;SDS011;35993;52.604;10.078;2023-05-16T07:16:24;9.07;;;1.85;;
50102;SDS011;35993;52.604;10.078;2023-05-16T07:18:52;5.60;;;1.30;;
50102;SDS011;35993;52.604;10.078;2023-05-16T07:21:18;8.85;;;1.50;;
50102;SDS011;35993;52.604;10.078;2023-05-16T07:23:44;9.13;;;2.10;;
50102;SDS011;35993;52.604;10.078;2023-05-16T07:26:09;10.75;;;1.65;;
50102;SDS011;35993;52.604;10.078;2023-05-16T07:28:35;8.55;;;1.85;;
50102;SDS011;35993;52.604;10.078;2023-05-16T07:31:01;13.05;;;2.65;;
50102;SDS011;35993;52.604;10.078;2023-05-16T07:33:26;8.20;;;1.48;;
50102;SDS011;35993;52.604;10.078;2023-05-16T07:35:52;7.40;;;1.42;;
50102;SDS011;35993;52.604;10.078;2023-05-16T07:38:19;5.90;;;1.73;;
50102;SDS011;35993;52.604;10.078;2023-05-16T07:40:45;5.45;;;1.35;;
50102;SDS011;35993;52.604;10.078;2023-05-16T07:43:10;3.63;;;1.25;;
50102;SDS011;35993;52.604;10.078;2023-05-16T07:45:36;13.52;;;1.80;;
50102;SDS011;35993;52.604;10.078;2023-05-16T07:48:02;8.52;;;1.60;;
50102;SDS011;35993;52.604;10.078;2023-05-16T07:50:27;7.07;;;1.45;;
50102;SDS011;35993;52.604;10.078;2023-05-16T07:52:53;10.85;;;1.67;;
50102;SDS011;35993;52.604;10.078;2023-05-16T07:55:18;10.18;;;1.77;;
50102;SDS011;35993;52.604;10.078;2023-05-16T07:57:46;7.22;;;1.63;;
50102;SDS011;35993;52.604;10.078;2023-05-16T08:00:13;6.13;;;1.50;;
50102;SDS011;35993;52.604;10.078;2023-05-16T08:02:39;6.75;;;1.58;;
50102;SDS011;35993;52.604;10.078;2023-05-16T08:05:05;7.80;;;1.58;;
50102;SDS011;35993;52.604;10.078;2023-05-16T08:07:31;5.95;;;1.40;;
50102;SDS011;35993;52.604;10.078;2023-05-16T08:09:57;7.50;;;1.30;;
50102;SDS011;35993;52.604;10.078;2023-05-16T08:12:23;5.10;;;1.20;;
50102;SDS011;35993;52.604;10.078;2023-05-16T08:14:49;5.00;;;1.23;;
50102;SDS011;35993;52.604;10.078;2023-05-16T08:17:14;7.63;;;1.48;;
50102;SDS011;35993;52.604;10.078;2023-05-16T08:19:40;9.95;;;1.65;;
50102;SDS011;35993;52.604;10.078;2023-05-16T08:22:06;6.68;;;1.40;;
50102;SDS011;35993;52.604;10.078;2023-05-16T08:24:34;9.18;;;1.60;;
50102;SDS011;35993;52.604;10.078;2023-05-16T08:27:00;8.63;;;1.50;;
50102;SDS011;35993;52.604;10.078;2023-05-16T08:29:25;6.22;;;1.30;;
50102;SDS011;35993;52.604;10.078;2023-05-16T08:31:51;8.38;;;1.60;;
50102;SDS011;35993;52.604;10.078;2023-05-16T08:34:16;5.00;;;1.27;;
50102;SDS011;35993;52.604;10.078;2023-05-16T08:36:42;9.00;;;1.58;;
50102;SDS011;35993;52.604;10.078;2023-05-16T08:39:08;7.18;;;1.13;;
50102;SDS011;35993;52.604;10.078;2023-05-16T08:41:35;10.15;;;1.35;;
50102;SDS011;35993;52.604;10.078;2023-05-16T08:44:02;8.93;;;1.50;;
50102;SDS011;35993;52.604;10.078;2023-05-16T08:46:28;4.97;;;1.17;;
50102;SDS011;35993;52.604;10.078;2023-05-16T08:48:57;7.47;;;1.40;;
50102;SDS011;35993;52.604;10.078;2023-05-16T08:51:24;6.20;;;1.20;;
50102;SDS011;35993;52.604;10.078;2023-05-16T08:53:51;5.90;;;1.50;;
50102;SDS011;35993;52.604;10.078;2023-05-16T08:56:21;6.72;;;1.20;;
50102;SDS011;35993;52.604;10.078;2023-05-16T08:59:09;9.70;;;1.75;;
50102;SDS011;35993;52.604;10.078;2023-05-16T09:01:36;5.95;;;1.05;;
50102;SDS011;35993;52.604;10.078;2023-05-16T09:04:07;3.95;;;1.08;;
50102;SDS011;35993;52.604;10.078;2023-05-16T09:09:02;7.18;;;1.33;;
50102;SDS011;35993;52.604;10.078;2023-05-16T09:11:31;8.35;;;1.50;;
50102;SDS011;35993;52.604;10.078;2023-05-16T09:13:57;7.50;;;1.17;;
50102;SDS011;35993;52.604;10.078;2023-05-16T09:16:23;6.70;;;1.23;;
50102;SDS011;35993;52.604;10.078;2023-05-16T09:18:55;3.20;;;0.90;;
50102;SDS011;35993;52.604;10.078;2023-05-16T09:21:25;3.38;;;0.98;;
50102;SDS011;35993;52.604;10.078;2023-05-16T09:23:52;8.95;;;2.00;;
50102;SDS011;35993;52.604;10.078;2023-05-16T09:26:18;5.00;;;1.38;;
50102;SDS011;35993;52.604;10.078;2023-05-16T09:28:44;3.67;;;1.08;;
50102;SDS011;35993;52.604;10.078;2023-05-16T09:31:22;3.35;;;0.90;;
50102;SDS011;35993;52.604;10.078;2023-05-16T09:33:55;3.15;;;1.02;;
50102;SDS011;35993;52.604;10.078;2023-05-16T09:36:21;5.47;;;0.82;;
50102;SDS011;35993;52.604;10.078;2023-05-16T09:38:47;4.10;;;1.00;;
50102;SDS011;35993;52.604;10.078;2023-05-16T09:41:14;4.05;;;0.98;;
50102;SDS011;35993;52.604;10.078;2023-05-16T09:43:40;7.53;;;1.40;;
50102;SDS011;35993;52.604;10.078;2023-05-16T09:46:07;6.18;;;1.45;;
50102;SDS011;35993;52.604;10.078;2023-05-16T09:48:33;4.63;;;1.20;;
50102;SDS011;35993;52.604;10.078;2023-05-16T09:50:58;3.55;;;1.02;;
50102;SDS011;35993;52.604;10.078;2023-05-16T09:53:29;4.07;;;1.17;;
50102;SDS011;35993;52.604;10.078;2023-05-16T09:56:00;5.57;;;1.08;;
50102;SDS011;35993;52.604;10.078;2023-05-16T09:58:32;3.60;;;1.33;;
50102;SDS011;35993;52.604;10.078;2023-05-16T10:00:59;7.70;;;1.25;;
50102;SDS011;35993;52.604;10.078;2023-05-16T10:03:25;4.90;;;1.10;;
50102;SDS011;35993;52.604;10.078;2023-05-16T10:05:51;6.30;;;1.20;;
50102;SDS011;35993;52.604;10.078;2023-05-16T10:08:21;4.72;;;1.08;;
50102;SDS011;35993;52.604;10.078;2023-05-16T10:10:49;3.95;;;1.27;;
50102;SDS011;35993;52.604;10.078;2023-05-16T10:13:18;4.03;;;1.02;;
50102;SDS011;35993;52.604;10.078;2023-05-16T10:15:48;6.47;;;1.50;;
50102;SDS011;35993;52.604;10.078;2023-05-16T10:18:15;6.47;;;1.30;;
50102;SDS011;35993;52.604;10.078;2023-05-16T10:20:43;5.45;;;1.05;;
50102;SDS011;35993;52.604;10.078;2023-05-16T10:23:16;6.00;;;1.17;;
50102;SDS011;35993;52.604;10.078;2023-05-16T10:25:44;4.07;;;1.30;;
50102;SDS011;35993;52.604;10.078;2023-05-16T10:28:11;4.50;;;1.05;;
50102;SDS011;35993;52.604;10.078;2023-05-16T10:30:39;5.72;;;1.20;;
50102;SDS011;35993;52.604;10.078;2023-05-16T10:33:09;4.65;;;1.08;;
50102;SDS011;35993;52.604;10.078;2023-05-16T10:35:37;6.63;;;1.17;;
50102;SDS011;35993;52.604;10.078;2023-05-16T10:38:03;3.60;;;1.38;;
50102;SDS011;35993;52.604;10.078;2023-05-16T10:40:30;5.22;;;1.50;;
50102;SDS011;35993;52.604;10.078;2023-05-16T10:42:57;22.85;;;2.00;;
50102;SDS011;35993;52.604;10.078;2023-05-16T10:45:25;3.30;;;0.85;;
50102;SDS011;35993;52.604;10.078;2023-05-16T10:47:55;4.90;;;1.20;;
50102;SDS011;35993;52.604;10.078;2023-05-16T10:50:44;4.00;;;1.03;;
50102;SDS011;35993;52.604;10.078;2023-05-16T10:53:22;5.03;;;0.95;;
50102;SDS011;35993;52.604;10.078;2023-05-16T11:04:00;3.47;;;1.00;;
50102;SDS011;35993;52.604;10.078;2023-05-16T11:06:28;5.22;;;1.00;;
50102;SDS011;35993;52.604;10.078;2023-05-16T11:14:06;4.65;;;1.25;;
50102;SDS011;35993;52.604;10.078;2023-05-16T11:16:32;3.80;;;1.10;;
50102;SDS011;35993;52.604;10.078;2023-05-16T11:19:05;4.30;;;1.05;;
50102;SDS011;35993;52.604;10.078;2023-05-16T11:24:29;5.18;;;1.30;;
50102;SDS011;35993;52.604;10.078;2023-05-16T11:26:56;3.80;;;1.20;;
50102;SDS011;35993;52.604;10.078;2023-05-16T11:29:24;3.10;;;1.10;;
50102;SDS011;35993;52.604;10.078;2023-05-16T11:31:57;8.75;;;1.10;;
50102;SDS011;35993;52.604;10.078;2023-05-16T11:34:23;4.85;;;1.20;;
50102;SDS011;35993;52.604;10.078;2023-05-16T11:36:49;6.03;;;1.20;;
50102;SDS011;35993;52.604;10.078;2023-05-16T11:39:15;5.28;;;0.95;;
50102;SDS011;35993;52.604;10.078;2023-05-16T11:41:40;3.33;;;1.05;;
50102;SDS011;35993;52.604;10.078;2023-05-16T11:44:06;3.15;;;1.02;;
50102;SDS011;35993;52.604;10.078;2023-05-16T11:46:37;4.80;;;0.95;;
50102;SDS011;35993;52.604;10.078;2023-05-16T11:49:05;4.90;;;1.25;;
50102;SDS011;35993;52.604;10.078;2023-05-16T11:51:34;3.65;;;1.38;;
50102;SDS011;35993;52.604;10.078;2023-05-16T11:54:02;3.45;;;1.23;;
50102;SDS011;35993;52.604;10.078;2023-05-16T11:56:29;6.55;;;1.40;;
50102;SDS011;35993;52.604;10.078;2023-05-16T11:58:56;5.70;;;1.25;;
50102;SDS011;35993;52.604;10.078;2023-05-16T12:01:24;5.60;;;1.55;;
50102;SDS011;35993;52.604;10.078;2023-05-16T12:03:56;5.57;;;1.30;;
50102;SDS011;35993;52.604;10.078;2023-05-16T12:06:22;5.30;;;1.33;;
50102;SDS011;35993;52.604;10.078;2023-05-16T12:08:50;6.72;;;1.83;;
50102;SDS011;35993;52.604;10.078;2023-05-16T12:11:16;3.05;;;1.15;;
50102;SDS011;35993;52.604;10.078;2023-05-16T12:13:42;2.78;;;0.95;;
50102;SDS011;35993;52.604;10.078;2023-05-16T12:16:08;4.05;;;1.20;;
50102;SDS011;35993;52.604;10.078;2023-05-16T12:18:35;4.80;;;1.23;;
50102;SDS011;35993;52.604;10.078;2023-05-16T12:21:06;4.90;;;1.38;;
50102;SDS011;35993;52.604;10.078;2023-05-16T12:23:31;9.50;;;1.88;;
50102;SDS011;35993;52.604;10.078;2023-05-16T12:25:58;8.85;;;1.10;;
50102;SDS011;35993;52.604;10.078;2023-05-16T12:28:29;10.20;;;1.30;;
50102;SDS011;35993;52.604;10.078;2023-05-16T12:30:58;4.95;;;1.02;;
50102;SDS011;35993;52.604;10.078;2023-05-16T12:33:23;6.63;;;1.30;;
50102;SDS011;35993;52.604;10.078;2023-05-16T12:35:49;6.60;;;1.50;;
50102;SDS011;35993;52.604;10.078;2023-05-16T12:38:17;7.13;;;1.40;;
50102;SDS011;35993;52.604;10.078;2023-05-16T12:40:44;4.03;;;1.30;;
50102;SDS011;35993;52.604;10.078;2023-05-16T12:43:13;5.07;;;1.00;;
50102;SDS011;35993;52.604;10.078;2023-05-16T12:45:49;6.03;;;1.10;;
50102;SDS011;35993;52.604;10.078;2023-05-16T12:48:19;10.35;;;1.50;;
50102;SDS011;35993;52.604;10.078;2023-05-16T12:50:45;3.95;;;0.77;;
50102;SDS011;35993;52.604;10.078;2023-05-16T12:53:11;5.53;;;0.95;;
50102;SDS011;35993;52.604;10.078;2023-05-16T12:55:38;4.55;;;1.10;;
50102;SDS011;35993;52.604;10.078;2023-05-16T12:58:04;2.92;;;0.82;;
50102;SDS011;35993;52.604;10.078;2023-05-16T13:00:30;4.35;;;1.00;;
50102;SDS011;35993;52.604;10.078;2023-05-16T13:02:58;3.45;;;0.88;;
50102;SDS011;35993;52.604;10.078;2023-05-16T13:05:23;2.92;;;1.20;;
50102;SDS011;35993;52.604;10.078;2023-05-16T13:07:49;1.15;;;0.63;;
50102;SDS011;35993;52.604;10.078;2023-05-16T13:10:16;6.50;;;1.75;;
50102;SDS011;35993;52.604;10.078;2023-05-16T13:12:42;2.55;;;0.75;;
50102;SDS011;35993;52.604;10.078;2023-05-16T13:15:08;3.20;;;1.00;;
50102;SDS011;35993;52.604;10.078;2023-05-16T13:17:39;4.53;;;0.90;;
50102;SDS011;35993;52.604;10.078;2023-05-16T13:20:06;3.17;;;0.82;;
50102;SDS011;35993;52.604;10.078;2023-05-16T13:22:39;2.28;;;0.90;;
50102;SDS011;35993;52.604;10.078;2023-05-16T13:25:06;3.55;;;1.10;;
50102;SDS011;35993;52.604;10.078;2023-05-16T13:27:32;4.30;;;0.85;;
50102;SDS011;35993;52.604;10.078;2023-05-16T13:29:58;2.85;;;1.00;;
50102;SDS011;35993;52.604;10.078;2023-05-16T13:32:24;7.38;;;2.65;;
50102;SDS011;35993;52.604;10.078;2023-05-16T13:34:50;7.13;;;3.63;;
50102;SDS011;35993;52.604;10.078;2023-05-16T13:37:17;8.20;;;3.08;;
50102;SDS011;35993;52.604;10.078;2023-05-16T13:39:43;5.78;;;2.83;;
50102;SDS011;35993;52.604;10.078;2023-05-16T13:42:10;7.35;;;3.53;;
50102;SDS011;35993;52.604;10.078;2023-05-16T13:44:35;5.72;;;1.88;;
50102;SDS011;35993;52.604;10.078;2023-05-16T13:47:01;6.25;;;2.30;;
50102;SDS011;35993;52.604;10.078;2023-05-16T13:49:27;11.60;;;2.70;;
50102;SDS011;35993;52.604;10.078;2023-05-16T13:51:53;8.38;;;3.85;;
50102;SDS011;35993;52.604;10.078;2023-05-16T13:54:18;6.10;;;2.92;;
50102;SDS011;35993;52.604;10.078;2023-05-16T13:56:46;4.03;;;1.88;;
50102;SDS011;35993;52.604;10.078;2023-05-16T13:59:11;5.82;;;2.35;;
50102;SDS011;35993;52.604;10.078;2023-05-16T14:01:37;5.50;;;1.55;;
50102;SDS011;35993;52.604;10.078;2023-05-16T14:04:02;4.60;;;1.40;;
50102;SDS011;35993;52.604;10.078;2023-05-16T14:06:28;4.32;;;1.23;;
50102;SDS011;35993;52.604;10.078;2023-05-16T14:08:54;6.43;;;1.20;;
50102;SDS011;35993;52.604;10.078;2023-05-16T14:11:19;3.22;;;1.05;;
50102;SDS011;35993;52.604;10.078;2023-05-16T14:13:50;5.30;;;1.30;;
50102;SDS011;35993;52.604;10.078;2023-05-16T14:16:16;6.57;;;2.70;;
50102;SDS011;35993;52.604;10.078;2023-05-16T14:18:42;6.90;;;2.50;;
50102;SDS011;35993;52.604;10.078;2023-05-16T14:21:07;3.97;;;1.92;;
50102;SDS011;35993;52.604;10.078;2023-05-16T14:23:33;4.80;;;1.40;;
50102;SDS011;35993;52.604;10.078;2023-05-16T14:25:59;2.90;;;1.30;;
50102;SDS011;35993;52.604;10.078;2023-05-16T14:28:25;4.13;;;1.20;;
50102;SDS011;35993;52.604;10.078;2023-05-16T14:30:50;3.30;;;1.30;;
50102;SDS011;35993;52.604;10.078;2023-05-16T14:33:16;5.30;;;1.10;;
50102;SDS011;35993;52.604;10.078;2023-05-16T14:35:41;3.58;;;1.15;;
50102;SDS011;35993;52.604;10.078;2023-05-16T14:38:07;4.93;;;2.25;;
50102;SDS011;35993;52.604;10.078;2023-05-16T14:40:34;6.05;;;2.20;;
50102;SDS011;35993;52.604;10.078;2023-05-16T14:42:59;5.75;;;2.25;;
50102;SDS011;35993;52.604;10.078;2023-05-16T14:45:28;3.88;;;1.33;;
50102;SDS011;35993;52.604;10.078;2023-05-16T14:47:53;2.80;;;0.90;;
50102;SDS011;35993;52.604;10.078;2023-05-16T14:50:19;4.28;;;1.10;;
50102;SDS011;35993;52.604;10.078;2023-05-16T14:52:44;3.90;;;1.20;;
50102;SDS011;35993;52.604;10.078;2023-05-16T14:55:10;4.40;;;1.40;;
50102;SDS011;35993;52.604;10.078;2023-05-16T14:57:36;4.07;;;1.02;;
50102;SDS011;35993;52.604;10.078;2023-05-16T15:00:01;4.20;;;1.00;;
50102;SDS011;35993;52.604;10.078;2023-05-16T15:02:28;5.88;;;1.10;;
50102;SDS011;35993;52.604;10.078;2023-05-16T15:04:53;5.18;;;1.00;;
50102;SDS011;35993;52.604;10.078;2023-05-16T15:07:19;2.50;;;0.95;;
50102;SDS011;35993;52.604;10.078;2023-05-16T15:09:45;4.68;;;1.08;;